Time;durP1;ratioP1;P1;durP2;ratioP2;P2;SDS_P1;SDS_P2;PMS_P1;PMS_P2;Temp;Humidity;BMP_temperature;BMP_pressure;BME280_temperature;BME280_humidity;BME280_pressure;Samples;Min_cycle;Max_cycle;Signal;HPM_P1;HPM_P2
2022/07/26 00:02:04;;;;;;;3.78;3.40;;;28.00;96.70;;;;;;5068022;28;20469;-81
2022/07/26 00:04:32;;;;;;;5.60;3.70;;;27.90;96.70;;;;;;5067143;28;20449;-82
2022/07/26 00:07:18;;;;;;;3.53;3.22;;;27.90;96.70;;;;;;5079311;28;20056;-81
2022/07/26 00:09:46;;;;;;;4.30;3.70;;;28.00;96.70;;;;;;5083204;28;20529;-80
2022/07/26 00:12:15;;;;;;;6.35;3.38;;;28.00;96.70;;;;;;5064100;28;20455;-81
2022/07/26 00:14:43;;;;;;;3.97;3.58;;;28.00;96.70;;;;;;5082153;28;20045;-80
2022/07/26 00:17:11;;;;;;;5.07;3.60;;;28.00;96.70;;;;;;5058665;28;20036;-81
2022/07/26 00:19:39;;;;;;;3.50;3.20;;;28.10;96.70;;;;;;5079548;28;20044;-82
2022/07/26 00:24:55;;;;;;;;;;;28.00;96.70;;;;;;5081378;28;20056;-81
2022/07/26 00:27:23;;;;;;;6.20;4.03;;;28.00;96.70;;;;;;5082317;28;20364;-81
2022/07/26 00:29:52;;;;;;;4.60;3.28;;;27.90;96.70;;;;;;5084314;28;20051;-81
2022/07/26 00:32:20;;;;;;;3.67;3.38;;;27.80;96.70;;;;;;5089843;28;20043;-81
2022/07/26 00:34:48;;;;;;;4.32;3.47;;;27.80;96.70;;;;;;5078066;28;20078;-82
2022/07/26 00:37:16;;;;;;;3.92;3.63;;;27.90;96.70;;;;;;5078059;28;20055;-81
2022/07/26 00:39:47;;;;;;;3.75;3.45;;;27.80;96.70;;;;;;5068483;28;20611;-81
2022/07/26 00:42:17;;;;;;;6.25;3.58;;;27.90;96.70;;;;;;5082885;28;20728;-81
2022/07/26 00:44:45;;;;;;;3.97;3.10;;;27.90;96.70;;;;;;5071733;28;20154;-82
2022/07/26 00:47:16;;;;;;;4.05;3.42;;;27.90;96.70;;;;;;5059840;28;20041;-79
2022/07/26 00:49:45;;;;;;;4.55;3.75;;;27.80;96.70;;;;;;5073424;28;20853;-80
2022/07/26 00:52:13;;;;;;;3.92;3.58;;;27.80;96.70;;;;;;5076221;28;20047;-80
2022/07/26 00:54:44;;;;;;;4.60;3.90;;;27.80;96.70;;;;;;5077554;28;20048;-79
2022/07/26 00:57:13;;;;;;;4.00;3.60;;;27.70;96.70;;;;;;5064693;28;20590;-80
2022/07/26 00:59:43;;;;;;;7.13;3.97;;;27.70;96.70;;;;;;5065467;28;20828;-80
2022/07/26 01:02:11;;;;;;;4.38;3.78;;;27.70;96.70;;;;;;5080464;28;20110;-78
2022/07/26 01:04:43;;;;;;;4.53;3.63;;;27.70;96.70;;;;;;5080683;28;20543;-79
2022/07/26 01:07:12;;;;;;;5.53;3.80;;;27.80;96.70;;;;;;5075883;28;20048;-79
2022/07/26 01:09:41;;;;;;;5.10;3.80;;;27.80;96.70;;;;;;5079381;28;20478;-79
2022/07/26 01:12:10;;;;;;;5.07;3.63;;;27.80;96.70;;;;;;5063841;28;20131;-79
2022/07/26 01:14:40;;;;;;;6.43;4.38;;;27.70;96.70;;;;;;5088146;28;20529;-79
2022/07/26 01:17:10;;;;;;;4.78;3.42;;;27.60;96.70;;;;;;5062798;28;20043;-79
2022/07/26 01:19:38;;;;;;;4.40;4.05;;;27.60;96.70;;;;;;5078596;28;20043;-79
2022/07/26 01:22:08;;;;;;;4.85;3.95;;;27.60;96.70;;;;;;5074564;28;20048;-78
2022/07/26 01:24:41;;;;;;;4.40;3.83;;;27.60;96.70;;;;;;5083960;28;20129;-79
2022/07/26 01:27:09;;;;;;;5.10;3.78;;;27.50;96.70;;;;;;5057676;28;20037;-79
2022/07/26 01:29:37;;;;;;;4.18;3.78;;;27.50;96.70;;;;;;5081070;28;20461;-79
2022/07/26 01:32:05;;;;;;;4.82;3.67;;;27.50;96.70;;;;;;5077714;28;20066;-79
2022/07/26 01:34:34;;;;;;;4.97;4.20;;;27.40;96.70;;;;;;5068720;28;20044;-80
2022/07/26 01:37:04;;;;;;;4.45;3.95;;;27.50;96.70;;;;;;5077687;28;20090;-79
2022/07/26 01:39:34;;;;;;;5.85;3.85;;;27.50;96.70;;;;;;5078220;28;20044;-78
2022/07/26 01:42:02;;;;;;;6.65;4.47;;;27.40;96.70;;;;;;5079839;28;20647;-79
2022/07/26 01:44:30;;;;;;;4.25;3.90;;;27.40;96.70;;;;;;5082493;28;20051;-79
2022/07/26 01:46:58;;;;;;;5.43;3.83;;;27.40;96.70;;;;;;5078444;28;20514;-79
2022/07/26 01:49:26;;;;;;;6.35;3.78;;;27.30;96.70;;;;;;5075336;28;20105;-79
2022/07/26 01:51:54;;;;;;;3.85;3.50;;;27.20;96.70;;;;;;5078468;28;20440;-79
2022/07/26 01:54:22;;;;;;;3.78;3.40;;;27.30;96.70;;;;;;5060909;28;20089;-79
2022/07/26 01:56:52;;;;;;;4.60;3.90;;;27.30;96.70;;;;;;5084119;28;20452;-79
2022/07/26 01:59:20;;;;;;;3.97;3.58;;;27.30;96.70;;;;;;5055947;28;20915;-79
2022/07/26 02:01:48;;;;;;;5.00;3.65;;;27.20;96.70;;;;;;5076782;28;20410;-80
2022/07/26 02:07:03;;;;;;;3.75;3.33;;;27.10;96.70;;;;;;5069036;28;20043;-79
2022/07/26 02:09:39;;;;;;;5.43;3.72;;;27.10;96.70;;;;;;5064484;28;20494;-79
2022/07/26 02:12:09;;;;;;;6.75;4.07;;;27.10;96.70;;;;;;5077137;28;20071;-79
2022/07/26 02:14:37;;;;;;;4.78;4.30;;;27.20;96.70;;;;;;5084591;28;20040;-79
2022/07/26 02:17:06;;;;;;;4.30;3.90;;;27.30;96.70;;;;;;5085118;28;20101;-79
2022/07/26 02:19:34;;;;;;;4.50;4.13;;;27.10;96.70;;;;;;5077532;28;20047;-79
2022/07/26 02:22:03;;;;;;;4.82;4.22;;;27.10;96.70;;;;;;5081651;28;20123;-78
2022/07/26 02:24:31;;;;;;;4.57;3.63;;;27.00;96.70;;;;;;5074306;28;20060;-80
2022/07/26 02:27:01;;;;;;;4.72;3.97;;;27.10;96.70;;;;;;5075508;28;20040;-80
2022/07/26 02:29:31;;;;;;;5.05;4.63;;;27.10;96.70;;;;;;5064913;28;20808;-80
2022/07/26 02:31:59;;;;;;;5.45;4.20;;;27.20;96.70;;;;;;5058633;28;20143;-80
2022/07/26 02:34:27;;;;;;;5.70;5.20;;;27.10;96.70;;;;;;5081321;28;20400;-80
2022/07/26 02:37:00;;;;;;;4.30;3.90;;;27.10;96.70;;;;;;5065594;28;20048;-80
2022/07/26 02:39:29;;;;;;;3.97;3.58;;;27.10;96.70;;;;;;5063480;28;20063;-80
2022/07/26 02:42:00;;;;;;;4.32;3.92;;;27.10;96.70;;;;;;5076124;28;20048;-80
2022/07/26 02:44:30;;;;;;;4.38;3.97;;;27.20;96.70;;;;;;5064026;28;20052;-81
2022/07/26 02:46:58;;;;;;;4.07;3.70;;;27.20;96.70;;;;;;5077523;28;20048;-80
2022/07/26 02:49:27;;;;;;;6.47;3.88;;;27.20;96.70;;;;;;5086900;28;20460;-79
2022/07/26 02:51:55;;;;;;;4.60;3.55;;;27.10;96.70;;;;;;5078642;28;20100;-80
2022/07/26 02:54:24;;;;;;;6.40;3.95;;;27.00;96.70;;;;;;5083025;28;20036;-80
2022/07/26 02:56:52;;;;;;;3.85;3.53;;;27.00;96.70;;;;;;5073352;28;20040;-80
2022/07/26 02:59:20;;;;;;;4.28;3.88;;;27.00;96.70;;;;;;5081423;28;20040;-80
2022/07/26 03:01:50;;;;;;;4.05;3.50;;;26.90;96.70;;;;;;5076263;28;20044;-80
2022/07/26 03:04:18;;;;;;;4.07;3.58;;;26.90;96.70;;;;;;5069883;28;20140;-80
2022/07/26 03:06:47;;;;;;;4.20;3.58;;;26.80;96.70;;;;;;5060086;28;20040;-80
2022/07/26 03:09:15;;;;;;;4.30;3.58;;;26.90;96.70;;;;;;5078042;28;20165;-80
2022/07/26 03:11:43;;;;;;;4.35;3.88;;;26.90;96.70;;;;;;5059081;28;20063;-80
2022/07/26 03:14:12;;;;;;;4.07;3.67;;;26.90;96.70;;;;;;5079900;28;20056;-80
2022/07/26 03:16:40;;;;;;;3.95;3.55;;;26.90;96.70;;;;;;5060486;28;20075;-80
2022/07/26 03:19:10;;;;;;;3.92;3.63;;;26.70;96.70;;;;;;5072029;28;20521;-79
2022/07/26 03:21:38;;;;;;;4.18;3.60;;;26.80;96.70;;;;;;5076882;28;20052;-80
2022/07/26 03:24:07;;;;;;;5.05;3.85;;;26.90;96.70;;;;;;5085446;28;20642;-80
2022/07/26 03:26:36;;;;;;;6.10;3.83;;;26.80;96.70;;;;;;5062477;28;20040;-80
2022/07/26 03:29:04;;;;;;;3.85;3.55;;;26.70;96.70;;;;;;5085709;28;20046;-80
2022/07/26 03:31:35;;;;;;;5.20;4.15;;;26.60;96.70;;;;;;5078103;28;20405;-79
2022/07/26 03:34:03;;;;;;;6.00;4.38;;;26.60;96.70;;;;;;5078229;28;20047;-80
2022/07/26 03:36:34;;;;;;;4.38;3.70;;;26.70;96.70;;;;;;5068688;28;20056;-79
2022/07/26 03:39:02;;;;;;;3.95;3.55;;;26.70;96.70;;;;;;5083816;28;20071;-81
2022/07/26 03:41:31;;;;;;;4.38;3.70;;;26.70;96.70;;;;;;5079362;28;20093;-79
2022/07/26 03:43:59;;;;;;;4.05;3.67;;;26.70;96.70;;;;;;5080716;28;20048;-80
2022/07/26 03:46:28;;;;;;;4.18;3.78;;;26.70;96.70;;;;;;5082701;28;20462;-81
2022/07/26 03:48:57;;;;;;;4.35;3.80;;;26.60;96.70;;;;;;5075918;28;20429;-79
2022/07/26 03:51:25;;;;;;;4.20;3.80;;;26.60;96.70;;;;;;5082333;28;20048;-80
2022/07/26 03:53:55;;;;;;;5.63;4.18;;;26.60;96.70;;;;;;5075910;28;20055;-80
2022/07/26 03:56:33;;;;;;;4.95;4.53;;;26.50;96.70;;;;;;5075023;28;20067;-79
2022/07/26 03:59:04;;;;;;;5.50;4.63;;;26.50;96.70;;;;;;5068464;28;20068;-79
2022/07/26 04:01:38;;;;;;;5.35;4.85;;;26.50;96.70;;;;;;5085177;28;20072;-79
2022/07/26 04:04:08;;;;;;;6.20;4.70;;;26.50;96.70;;;;;;5075475;28;20048;-79
2022/07/26 04:06:37;;;;;;;4.85;4.45;;;26.50;96.70;;;;;;5076533;28;20052;-79
2022/07/26 04:09:07;;;;;;;5.78;5.03;;;26.50;96.70;;;;;;5083526;28;20472;-78
2022/07/26 04:11:37;;;;;;;6.22;4.72;;;26.50;96.70;;;;;;5077847;28;20147;-79
2022/07/26 04:14:05;;;;;;;5.53;4.57;;;26.50;96.70;;;;;;5059978;28;20048;-78
2022/07/26 04:16:34;;;;;;;5.95;4.57;;;26.50;96.70;;;;;;5082700;28;20135;-79
2022/07/26 04:19:09;;;;;;;5.93;4.50;;;26.50;96.70;;;;;;5075154;28;20048;-80
2022/07/26 04:21:38;;;;;;;6.72;4.00;;;26.50;96.70;;;;;;5078533;28;20055;-79
2022/07/26 04:24:08;;;;;;;5.38;4.15;;;26.50;96.70;;;;;;5079854;28;20510;-79
2022/07/26 04:26:37;;;;;;;4.55;4.25;;;26.50;96.70;;;;;;5081771;28;20719;-79
2022/07/26 04:29:07;;;;;;;4.63;4.20;;;26.50;96.70;;;;;;5084832;28;20147;-79
2022/07/26 04:31:37;;;;;;;6.75;4.30;;;26.50;96.70;;;;;;5084905;28;20426;-80
2022/07/26 04:34:06;;;;;;;6.90;4.80;;;26.50;96.70;;;;;;5082893;28;20089;-79
2022/07/26 04:36:34;;;;;;;4.85;4.45;;;26.60;96.70;;;;;;5079215;28;20087;-80
2022/07/26 04:39:03;;;;;;;5.18;4.47;;;26.60;96.70;;;;;;5078478;28;20089;-79
2022/07/26 04:41:32;;;;;;;4.32;3.92;;;26.70;96.70;;;;;;5086795;28;20052;-80
2022/07/26 04:44:01;;;;;;;4.20;3.80;;;26.70;96.70;;;;;;5076304;28;20032;-79
2022/07/26 04:46:29;;;;;;;6.65;3.80;;;26.80;96.70;;;;;;5084114;28;20048;-80
2022/07/26 04:48:57;;;;;;;5.30;4.15;;;26.80;96.70;;;;;;5077185;28;20067;-80
2022/07/26 04:51:26;;;;;;;5.07;4.07;;;26.80;96.70;;;;;;5068001;28;20062;-79
2022/07/26 04:54:19;;;;;;;5.90;3.97;;;26.90;96.70;;;;;;5059621;28;20055;-80
2022/07/26 04:56:49;;;;;;;5.47;4.20;;;26.90;96.70;;;;;;5074079;28;20052;-79
2022/07/26 04:59:17;;;;;;;5.32;3.75;;;26.90;96.70;;;;;;5085495;28;20095;-79
2022/07/26 05:01:49;;;;;;;4.38;4.00;;;26.90;96.70;;;;;;5079804;28;20043;-79
2022/07/26 05:04:17;;;;;;;4.68;3.50;;;27.00;96.70;;;;;;5084832;28;20048;-79
2022/07/26 05:06:45;;;;;;;4.28;3.70;;;26.90;96.70;;;;;;5077508;28;20153;-79
2022/07/26 05:09:14;;;;;;;5.78;3.55;;;26.90;96.70;;;;;;5073608;28;20094;-80
2022/07/26 05:11:42;;;;;;;6.13;4.07;;;26.90;96.70;;;;;;5084612;28;20036;-79
2022/07/26 05:14:12;;;;;;;6.78;4.35;;;27.00;96.70;;;;;;5077692;28;20036;-80
2022/07/26 05:16:40;;;;;;;5.53;3.80;;;27.00;96.70;;;;;;5082942;28;20066;-79
2022/07/26 05:19:12;;;;;;;5.63;4.00;;;26.90;96.70;;;;;;5085848;28;20081;-81
2022/07/26 05:21:41;;;;;;;8.63;4.45;;;27.00;96.70;;;;;;5077446;28;20051;-81
2022/07/26 05:24:09;;;;;;;7.95;4.22;;;27.10;96.70;;;;;;5065402;28;20079;-80
2022/07/26 05:26:38;;;;;;;6.45;4.70;;;27.10;96.70;;;;;;5082284;28;20056;-80
2022/07/26 05:29:07;;;;;;;5.28;4.00;;;27.20;96.70;;;;;;5079914;28;20044;-81
2022/07/26 05:31:36;;;;;;;7.28;5.10;;;27.20;96.70;;;;;;5059745;28;20067;-81
2022/07/26 05:34:05;;;;;;;7.13;4.80;;;27.10;96.70;;;;;;5078148;28;20093;-80
2022/07/26 05:36:34;;;;;;;6.90;5.18;;;27.00;96.70;;;;;;5077841;28;20063;-79
2022/07/26 05:39:02;;;;;;;10.15;5.65;;;27.10;96.70;;;;;;5077062;28;20564;-79
2022/07/26 05:41:30;;;;;;;14.15;7.85;;;27.20;96.70;;;;;;5071762;28;20076;-79
2022/07/26 05:44:00;;;;;;;10.23;5.90;;;27.40;96.70;;;;;;5070807;28;20055;-79
2022/07/26 05:46:28;;;;;;;7.63;5.10;;;27.40;96.70;;;;;;5076858;28;20052;-79
2022/07/26 05:48:58;;;;;;;6.53;4.45;;;27.30;96.70;;;;;;5080618;28;20051;-79
2022/07/26 05:51:29;;;;;;;6.32;4.50;;;27.30;96.70;;;;;;5070336;28;20055;-80
2022/07/26 05:53:57;;;;;;;7.10;4.80;;;27.40;96.70;;;;;;5055349;28;20080;-80
2022/07/26 05:56:25;;;;;;;7.55;4.60;;;27.40;96.70;;;;;;5058284;28;20041;-81
2022/07/26 05:58:54;;;;;;;9.30;5.00;;;27.50;96.70;;;;;;5081056;28;20044;-80
2022/07/26 06:01:22;;;;;;;6.85;4.68;;;27.50;96.70;;;;;;5076202;28;20058;-80
2022/07/26 06:03:51;;;;;;;9.23;5.55;;;27.50;96.70;;;;;;5081335;28;20132;-81
2022/07/26 06:06:21;;;;;;;6.43;5.13;;;27.60;96.70;;;;;;5074599;28;20043;-80
2022/07/26 06:08:49;;;;;;;6.72;4.97;;;27.60;96.70;;;;;;5071903;28;20055;-79
2022/07/26 06:11:18;;;;;;;7.53;4.70;;;27.60;96.70;;;;;;5080270;28;20040;-79
2022/07/26 06:13:46;;;;;;;6.70;4.68;;;27.70;96.70;;;;;;5079507;28;20044;-79
2022/07/26 06:16:17;;;;;;;5.40;4.07;;;27.70;96.70;;;;;;5066906;28;20044;-79
2022/07/26 06:18:45;;;;;;;5.68;4.70;;;27.60;96.70;;;;;;5070968;28;20076;-79
2022/07/26 06:21:13;;;;;;;5.53;4.45;;;27.60;96.70;;;;;;5077210;28;20052;-80
2022/07/26 06:23:43;;;;;;;5.80;4.65;;;27.60;96.70;;;;;;5080651;28;20547;-81
2022/07/26 06:26:11;;;;;;;8.07;4.30;;;27.80;96.70;;;;;;5081365;28;20063;-80
2022/07/26 06:28:39;;;;;;;6.60;4.90;;;27.90;96.70;;;;;;5070196;28;20045;-80
2022/07/26 06:31:08;;;;;;;6.53;4.63;;;28.00;96.70;;;;;;5079344;28;20060;-81
2022/07/26 06:33:36;;;;;;;10.13;4.75;;;28.10;96.70;;;;;;5054493;28;20032;-81
2022/07/26 06:36:05;;;;;;;5.18;4.35;;;28.30;96.70;;;;;;5078637;28;20453;-82
2022/07/26 06:38:35;;;;;;;8.30;5.45;;;28.30;96.70;;;;;;5075328;28;20576;-82
2022/07/26 06:41:05;;;;;;;8.80;5.53;;;28.40;96.70;;;;;;5066835;28;20047;-81
2022/07/26 06:43:34;;;;;;;8.45;5.18;;;28.40;96.70;;;;;;5075583;28;20036;-81
2022/07/26 06:46:02;;;;;;;8.02;4.50;;;28.50;96.70;;;;;;5088870;28;20472;-81
2022/07/26 06:48:30;;;;;;;8.23;5.18;;;28.60;96.70;;;;;;5084538;28;20075;-82
2022/07/26 06:50:58;;;;;;;7.18;4.22;;;28.60;96.70;;;;;;5080224;28;20044;-83
2022/07/26 06:53:26;;;;;;;7.85;4.90;;;28.60;96.70;;;;;;5078800;28;20041;-84
2022/07/26 06:55:54;;;;;;;10.52;5.13;;;28.60;96.70;;;;;;5078964;28;20045;-80
2022/07/26 06:58:24;;;;;;;7.95;4.70;;;28.60;96.70;;;;;;5078147;28;20058;-80
2022/07/26 07:00:52;;;;;;;8.05;4.75;;;28.60;96.70;;;;;;5075163;28;20060;-80
2022/07/26 07:03:20;;;;;;;6.35;4.53;;;28.60;96.70;;;;;;5079535;28;20075;-80
2022/07/26 07:05:48;;;;;;;8.85;4.68;;;28.60;96.70;;;;;;5064068;28;20068;-80
2022/07/26 07:08:17;;;;;;;8.98;4.35;;;28.80;96.70;;;;;;5082122;28;20043;-84
2022/07/26 07:10:46;;;;;;;9.00;4.40;;;28.80;96.70;;;;;;5080729;28;20051;-82
2022/07/26 07:13:17;;;;;;;6.85;4.63;;;28.90;96.70;;;;;;5082312;28;20067;-82
2022/07/26 07:15:48;;;;;;;5.93;4.45;;;28.90;96.70;;;;;;5086541;28;20038;-81
2022/07/26 07:18:16;;;;;;;4.72;4.00;;;28.90;96.70;;;;;;5092305;28;20044;-83
2022/07/26 07:20:44;;;;;;;6.47;4.30;;;28.90;96.70;;;;;;5080431;28;20072;-84
2022/07/26 07:23:12;;;;;;;4.70;4.22;;;28.80;96.70;;;;;;5085852;28;20340;-83
2022/07/26 07:25:40;;;;;;;4.70;4.15;;;28.90;96.70;;;;;;5098879;28;20052;-85
2022/07/26 07:28:11;;;;;;;8.57;3.95;;;28.80;96.70;;;;;;5083572;28;20045;-81
2022/07/26 07:30:39;;;;;;;7.88;4.15;;;28.60;96.70;;;;;;5075481;28;20043;-81
2022/07/26 07:33:12;;;;;;;4.65;3.83;;;28.60;96.70;;;;;;5078321;28;20522;-82
2022/07/26 07:35:51;;;;;;;9.10;4.07;;;28.50;96.70;;;;;;5082763;28;20523;-83
2022/07/26 07:38:19;;;;;;;6.65;4.38;;;28.50;96.70;;;;;;5060778;28;20506;-81
2022/07/26 07:40:49;;;;;;;8.95;4.05;;;28.40;96.70;;;;;;5072729;28;20125;-80
2022/07/26 07:43:17;;;;;;;5.60;4.43;;;28.40;96.70;;;;;;5087605;28;20457;-81
2022/07/26 07:45:46;;;;;;;5.18;4.07;;;28.50;96.70;;;;;;5083096;28;20048;-80
2022/07/26 07:48:17;;;;;;;5.00;3.85;;;28.50;96.70;;;;;;5075213;28;20052;-80
2022/07/26 07:50:47;;;;;;;7.85;4.40;;;28.50;96.70;;;;;;5083652;28;20048;-80
2022/07/26 07:53:15;;;;;;;10.90;4.43;;;28.60;96.70;;;;;;5063534;28;20132;-80
2022/07/26 07:55:46;;;;;;;4.78;4.28;;;28.80;96.70;;;;;;5062460;28;20048;-82
2022/07/26 07:58:16;;;;;;;8.10;4.03;;;28.90;96.70;;;;;;5082143;28;20040;-80
2022/07/26 08:00:46;;;;;;;6.50;4.70;;;29.00;96.70;;;;;;5075967;28;20060;-80
2022/07/26 08:03:16;;;;;;;8.05;4.30;;;29.20;96.70;;;;;;5094319;28;20040;-80
2022/07/26 08:05:46;;;;;;;10.65;5.22;;;29.40;96.70;;;;;;5076927;28;20135;-79
2022/07/26 08:08:17;;;;;;;8.48;5.05;;;29.50;96.70;;;;;;5079194;28;20055;-80
2022/07/26 08:10:50;;;;;;;9.85;4.93;;;29.60;96.70;;;;;;5082074;28;20036;-81
2022/07/26 08:13:20;;;;;;;8.18;5.25;;;29.80;96.70;;;;;;5077042;28;20040;-80
2022/07/26 08:15:49;;;;;;;6.55;4.60;;;29.90;96.70;;;;;;5080577;28;20067;-82
2022/07/26 08:18:19;;;;;;;8.80;5.40;;;30.00;96.70;;;;;;5082288;28;20488;-82
2022/07/26 08:20:50;;;;;;;6.68;5.82;;;30.10;96.70;;;;;;5070732;28;20052;-80
2022/07/26 08:23:19;;;;;;;7.63;5.13;;;30.10;96.70;;;;;;5079172;28;20045;-81
2022/07/26 08:25:47;;;;;;;6.05;5.43;;;30.10;96.70;;;;;;5098954;27;20887;-81
2022/07/26 08:28:28;;;;;;;10.95;5.93;;;30.20;96.70;;;;;;5082601;28;20502;-82
2022/07/26 08:31:18;;;;;;;8.48;5.35;;;30.20;96.70;;;;;;5078782;28;20040;-81
2022/07/26 08:33:48;;;;;;;7.85;5.63;;;30.30;96.70;;;;;;5083747;28;20040;-81
2022/07/26 08:36:17;;;;;;;8.43;6.07;;;30.40;96.70;;;;;;5096534;28;20074;-81
2022/07/26 08:38:45;;;;;;;10.82;6.22;;;30.40;96.70;;;;;;5080611;28;20532;-79
2022/07/26 08:41:16;;;;;;;9.70;6.38;;;30.10;96.70;;;;;;5063806;28;20911;-78
2022/07/26 08:43:45;;;;;;;7.32;5.90;;;30.10;96.70;;;;;;5077898;28;20040;-79
2022/07/26 08:46:21;;;;;;;5.85;5.25;;;30.10;96.70;;;;;;5074297;28;20474;-79
2022/07/26 08:49:08;;;;;;;9.90;6.18;;;30.10;96.70;;;;;;5079236;28;20166;-77
2022/07/26 08:51:41;;;;;;;8.32;5.80;;;30.20;96.70;;;;;;5082079;28;20468;-79
2022/07/26 08:54:12;;;;;;;10.43;5.85;;;30.30;96.70;;;;;;5058665;28;20048;-79
2022/07/26 08:56:49;;;;;;;8.27;6.18;;;30.30;96.70;;;;;;5075682;28;20498;-78
2022/07/26 08:59:18;;;;;;;8.55;6.00;;;30.40;96.70;;;;;;5074208;28;20139;-78
2022/07/26 09:01:54;;;;;;;8.05;6.22;;;30.50;96.70;;;;;;5080975;28;20051;-79
2022/07/26 09:04:25;;;;;;;8.98;6.18;;;30.50;96.70;;;;;;5079260;28;20052;-82
2022/07/26 09:07:09;;;;;;;8.98;6.60;;;30.60;96.70;;;;;;5079564;28;20048;-79
2022/07/26 09:09:55;;;;;;;6.95;5.97;;;30.70;96.70;;;;;;5074482;28;20048;-78
2022/07/26 09:12:25;;;;;;;10.43;5.90;;;30.70;96.70;;;;;;5077350;28;20129;-80
2022/07/26 09:14:54;;;;;;;7.50;5.65;;;30.80;96.70;;;;;;5067133;28;20052;-81
2022/07/26 09:17:24;;;;;;;10.30;6.07;;;30.80;96.70;;;;;;5062977;28;20047;-80
2022/07/26 09:20:08;;;;;;;7.72;6.15;;;30.90;96.70;;;;;;5085973;28;20044;-79
2022/07/26 09:22:37;;;;;;;9.40;5.70;;;31.00;96.70;;;;;;5070879;28;20109;-82
2022/07/26 09:25:20;;;;;;;8.18;5.85;;;31.10;96.70;;;;;;5086926;28;20050;-84
2022/07/26 09:27:49;;;;;;;9.02;6.15;;;31.20;96.70;;;;;;5070080;28;20517;-85
2022/07/26 09:30:17;;;;;;;9.77;6.00;;;31.20;96.70;;;;;;5084539;28;20136;-83
2022/07/26 09:32:56;;;;;;;6.90;6.20;;;31.20;96.70;;;;;;5080426;28;20051;-80
2022/07/26 09:35:28;;;;;;;6.60;5.88;;;31.20;96.70;;;;;;5072632;28;20052;-81
2022/07/26 09:38:16;;;;;;;7.13;6.43;;;31.30;96.70;;;;;;5075226;28;20249;-82
2022/07/26 09:40:45;;;;;;;7.50;6.25;;;31.40;96.70;;;;;;5063447;28;20131;-81
2022/07/26 09:43:18;;;;;;;6.65;6.03;;;31.30;96.70;;;;;;5071821;28;20051;-82
2022/07/26 09:46:05;;;;;;;8.38;5.65;;;31.50;96.70;;;;;;5080132;28;20059;-81
2022/07/26 09:48:38;;;;;;;13.10;6.50;;;31.70;96.70;;;;;;5067254;28;20150;-81
2022/07/26 09:51:42;;;;;;;7.13;6.25;;;31.80;96.70;;;;;;5087111;28;20048;-86
2022/07/26 09:54:11;;;;;;;8.63;5.13;;;31.90;96.70;;;;;;5075547;28;20040;-85
2022/07/26 09:56:44;;;;;;;8.93;5.60;;;31.90;96.70;;;;;;5083493;28;20128;-85
2022/07/26 09:59:14;;;;;;;6.97;5.43;;;31.90;96.70;;;;;;5087299;28;20048;-86
2022/07/26 10:01:43;;;;;;;10.10;5.63;;;31.80;96.70;;;;;;5076702;28;20064;-85
2022/07/26 10:04:12;;;;;;;7.15;5.40;;;32.00;96.70;;;;;;5087360;28;20065;-85
2022/07/26 10:06:42;;;;;;;8.20;5.38;;;32.20;96.70;;;;;;5085041;28;20067;-85
2022/07/26 10:09:11;;;;;;;6.95;5.20;;;32.20;96.70;;;;;;5085840;28;20055;-85
2022/07/26 10:11:42;;;;;;;7.32;5.05;;;32.40;96.70;;;;;;5063500;28;20044;-82
2022/07/26 10:14:33;;;;;;;10.20;4.93;;;32.40;96.70;;;;;;5070950;28;20122;-82
2022/07/26 10:17:29;;;;;;;8.50;5.25;;;32.40;96.70;;;;;;5080344;28;20125;-86
2022/07/26 10:20:25;;;;;;;8.48;5.53;;;32.60;96.70;;;;;;5089170;28;20048;-85
2022/07/26 10:22:55;;;;;;;11.02;5.60;;;32.80;96.70;;;;;;5069103;28;20068;-86
2022/07/26 10:25:46;;;;;;;9.55;5.63;;;32.70;96.70;;;;;;5056427;28;20647;-85
2022/07/26 10:28:26;;;;;;;8.52;5.35;;;32.60;96.70;;;;;;5083454;28;20052;-85
2022/07/26 10:31:28;;;;;;;7.95;5.25;;;32.80;96.70;;;;;;5090319;28;20097;-85
2022/07/26 10:33:59;;;;;;;7.45;5.10;;;32.70;96.70;;;;;;5078568;28;20063;-84
2022/07/26 10:36:33;;;;;;;8.02;5.38;;;32.80;96.70;;;;;;5086510;28;20558;-85
2022/07/26 10:39:11;;;;;;;8.32;4.80;;;32.90;96.70;;;;;;5076107;28;20447;-82
2022/07/26 10:41:43;;;;;;;6.47;5.20;;;32.80;96.70;;;;;;5062397;28;20056;-81
2022/07/26 10:44:21;;;;;;;10.95;5.45;;;32.90;96.70;;;;;;5081429;28;20047;-80
2022/07/26 10:47:10;;;;;;;7.75;5.53;;;32.80;96.70;;;;;;5083117;28;20075;-81
2022/07/26 10:49:41;;;;;;;8.82;5.38;;;32.90;96.70;;;;;;5081465;28;20065;-82
2022/07/26 10:52:17;;;;;;;9.52;5.65;;;33.00;96.70;;;;;;5086250;28;20113;-82
2022/07/26 10:55:17;;;;;;;6.13;5.47;;;33.10;96.70;;;;;;5037009;28;20063;-81
2022/07/26 10:57:47;;;;;;;;;;;33.20;96.70;;;;;;5083550;28;20139;-81
2022/07/26 11:00:19;;;;;;;8.88;5.50;;;33.30;96.70;;;;;;5075574;28;20026;-82
2022/07/26 11:02:52;;;;;;;7.55;5.65;;;33.20;96.70;;;;;;5056384;28;20049;-82
2022/07/26 11:05:27;;;;;;;6.85;5.78;;;33.40;96.70;;;;;;5067489;28;20094;-83
2022/07/26 11:08:09;;;;;;;6.53;5.65;;;33.40;96.70;;;;;;5058993;28;20889;-82
2022/07/26 11:10:41;;;;;;;7.60;5.93;;;33.50;96.70;;;;;;5067734;28;20044;-82
2022/07/26 11:13:16;;;;;;;10.95;6.00;;;33.60;96.70;;;;;;5053267;28;20053;-82
2022/07/26 11:15:48;;;;;;;6.75;5.05;;;33.60;96.70;;;;;;5068227;28;21476;-82
2022/07/26 11:18:23;;;;;;;6.72;5.60;;;33.40;96.70;;;;;;5080531;28;20044;-82
2022/07/26 11:20:54;;;;;;;9.17;6.10;;;33.60;96.70;;;;;;5045270;28;20067;-82
2022/07/26 11:23:28;;;;;;;8.07;6.35;;;33.60;96.70;;;;;;5066523;28;20082;-83
2022/07/26 11:26:15;;;;;;;8.60;6.20;;;33.70;96.70;;;;;;5057380;28;20051;-82
2022/07/26 11:29:02;;;;;;;8.05;5.35;;;33.60;96.70;;;;;;5061971;28;20569;-82
2022/07/26 11:31:36;;;;;;;8.80;5.57;;;33.90;96.70;;;;;;5058431;28;20044;-82
2022/07/26 11:34:27;;;;;;;7.32;5.90;;;34.00;96.70;;;;;;5048718;28;20067;-82
2022/07/26 11:36:57;;;;;;;8.38;5.55;;;34.20;96.70;;;;;;5056309;28;20580;-82
2022/07/26 11:39:28;;;;;;;7.05;5.65;;;34.20;96.70;;;;;;5085574;28;20048;-82
2022/07/26 11:42:02;;;;;;;7.30;5.82;;;34.30;96.70;;;;;;5084223;28;20044;-81
2022/07/26 11:44:45;;;;;;;7.20;5.78;;;34.10;96.70;;;;;;5079513;28;20040;-82
2022/07/26 11:47:18;;;;;;;6.95;5.80;;;34.20;96.70;;;;;;5085912;28;20058;-81
2022/07/26 11:49:52;;;;;;;11.32;6.10;;;34.30;96.70;;;;;;5044818;28;21265;-82
2022/07/26 11:52:43;;;;;;;8.55;5.20;;;34.30;96.70;;;;;;5049100;28;20051;-83
2022/07/26 11:55:23;;;;;;;7.22;6.13;;;34.40;96.70;;;;;;5064395;28;20045;-82
2022/07/26 11:57:54;;;;;;;8.95;6.75;;;34.30;96.70;;;;;;5065697;28;20053;-82
2022/07/26 12:00:23;;;;;;;8.35;5.80;;;34.40;96.70;;;;;;5028387;28;20633;-82
2022/07/26 12:02:51;;;;;;;12.77;6.03;;;34.40;96.70;;;;;;5029649;28;20048;-82
2022/07/26 12:05:23;;;;;;;7.75;5.80;;;34.50;96.70;;;;;;5031462;28;20052;-82
2022/07/26 12:07:54;;;;;;;10.27;6.20;;;34.70;96.70;;;;;;5059713;28;20136;-80
2022/07/26 12:10:23;;;;;;;9.65;5.80;;;34.60;96.70;;;;;;5062505;28;20044;-86
2022/07/26 12:13:09;;;;;;;8.15;5.75;;;34.50;96.70;;;;;;5056124;28;20123;-86
2022/07/26 12:15:46;;;;;;;8.20;6.20;;;34.60;96.70;;;;;;5076344;28;20194;-85
2022/07/26 12:18:23;;;;;;;6.57;5.85;;;34.40;96.70;;;;;;5064405;28;20642;-86
2022/07/26 12:21:02;;;;;;;6.95;5.55;;;34.60;96.70;;;;;;5059356;28;20084;-86
2022/07/26 12:23:44;;;;;;;6.35;5.22;;;34.70;96.70;;;;;;5050203;28;20099;-86
2022/07/26 12:26:21;;;;;;;7.53;5.75;;;34.70;96.70;;;;;;5032644;28;20056;-86
2022/07/26 12:28:51;;;;;;;6.15;5.22;;;35.00;96.70;;;;;;5091155;28;20054;-86
2022/07/26 12:31:28;;;;;;;7.07;5.55;;;35.00;96.70;;;;;;5108286;28;20127;-86
2022/07/26 12:33:57;;;;;;;8.13;5.80;;;34.80;96.70;;;;;;5076275;28;20064;-82
2022/07/26 12:36:25;;;;;;;6.63;5.40;;;34.80;96.70;;;;;;5060023;28;20423;-83
2022/07/26 12:38:58;;;;;;;9.18;5.97;;;34.70;96.70;;;;;;5081405;28;20044;-82
2022/07/26 12:41:34;;;;;;;10.70;5.85;;;34.80;96.70;;;;;;5080746;28;20036;-82
2022/07/26 12:44:05;;;;;;;7.80;5.72;;;34.80;96.70;;;;;;5079053;28;20053;-82
2022/07/26 12:46:34;;;;;;;7.80;5.25;;;34.70;96.70;;;;;;5057284;28;20952;-82
2022/07/26 12:49:03;;;;;;;9.10;5.90;;;34.70;96.70;;;;;;5081959;28;20051;-81
2022/07/26 12:51:32;;;;;;;8.85;5.90;;;34.80;96.70;;;;;;5076177;28;20502;-82
2022/07/26 12:54:02;;;;;;;8.90;5.40;;;34.90;96.70;;;;;;5075362;28;20039;-82
2022/07/26 12:56:30;;;;;;;8.00;5.35;;;35.00;96.70;;;;;;5084464;28;20079;-82
2022/07/26 12:59:02;;;;;;;11.55;5.78;;;35.10;96.70;;;;;;5078982;28;20044;-81
2022/07/26 13:01:34;;;;;;;7.05;5.00;;;35.10;96.70;;;;;;5061781;28;20060;-82
2022/07/26 13:04:03;;;;;;;7.50;5.70;;;35.00;96.70;;;;;;5075818;28;20044;-82
2022/07/26 13:06:32;;;;;;;8.25;5.55;;;35.00;96.70;;;;;;5068295;28;20040;-82
2022/07/26 13:09:00;;;;;;;7.30;4.97;;;35.00;96.70;;;;;;5079425;28;20433;-82
2022/07/26 13:11:29;;;;;;;6.38;5.45;;;35.10;96.70;;;;;;5091257;28;20040;-82
2022/07/26 13:14:00;;;;;;;7.15;5.68;;;35.20;96.70;;;;;;5078900;28;20044;-82